WZZ618 LHBP-LROP
Flight info
| Callsign | WZZ618 |
|---|---|
| Flight time | 1h 7m |
| Altitude | 33000 |
| Route | VETIK DCT BUDOP DCT LAMIT DCT TOSVI |
| Aircraft | A320/M-SDE3FGHIRWY/LB1 |
Departure
| Time | 2026-05-04 18:13 |
|---|---|
| Airport | Budapest Liszt Ferenc International Airport (LHBP) |
Arrival
| Time | 2026-05-04 19:20 |
|---|---|
| Airport | Bucharest Henri Coandă International Airport (LROP) |
| Time | Latitude | Longitude | Altitude | Speed | Heading |
|---|---|---|---|---|---|
| 2026-05-04 17:31 | 47.43455 | 19.26253 | 455 ft | 0 kts | 222° |
| 2026-05-04 17:35 | 47.43452 | 19.26251 | 456 ft | 0 kts | 222° |
| 2026-05-04 18:03 | 47.43468 | 19.26272 | 457 ft | 4 kts | 225° |
| 2026-05-04 18:04 | 47.43487 | 19.26301 | 455 ft | 4 kts | 225° |
| 2026-05-04 18:04 | 47.43498 | 19.26317 | 455 ft | 0 kts | 222° |
| 2026-05-04 18:04 | 47.43520 | 19.26271 | 457 ft | 4 kts | 317° |
| 2026-05-04 18:05 | 47.43527 | 19.26261 | 456 ft | 0 kts | 316° |
| 2026-05-04 18:08 | 47.43529 | 19.26259 | 457 ft | 2 kts | 316° |
| 2026-05-04 18:09 | 47.43605 | 19.26174 | 457 ft | 9 kts | 330° |
| 2026-05-04 18:09 | 47.43709 | 19.26013 | 457 ft | 11 kts | 313° |
| 2026-05-04 18:10 | 47.43764 | 19.25965 | 457 ft | 10 kts | 6° |
| 2026-05-04 18:10 | 47.43825 | 19.26032 | 457 ft | 12 kts | 42° |
| 2026-05-04 18:10 | 47.43890 | 19.26120 | 458 ft | 13 kts | 43° |
| 2026-05-04 18:10 | 47.43962 | 19.26217 | 458 ft | 14 kts | 42° |
| 2026-05-04 18:11 | 47.44014 | 19.26287 | 460 ft | 9 kts | 42° |
| 2026-05-04 18:11 | 47.44049 | 19.26344 | 463 ft | 5 kts | 54° |
| 2026-05-04 18:11 | 47.44055 | 19.26362 | 466 ft | 0 kts | 65° |
| 2026-05-04 18:11 | 47.44058 | 19.26372 | 467 ft | 3 kts | 65° |
| 2026-05-04 18:12 | 47.44068 | 19.26428 | 470 ft | 9 kts | 81° |
| 2026-05-04 18:12 | 47.44057 | 19.26544 | 467 ft | 13 kts | 123° |
| 2026-05-04 18:12 | 47.43987 | 19.26657 | 470 ft | 22 kts | 132° |
| 2026-05-04 18:12 | 47.43726 | 19.27078 | 474 ft | 87 kts | 132° |
| 2026-05-04 18:13 | 47.43189 | 19.27947 | 460 ft | 140 kts | 132° |
| 2026-05-04 18:13 | 47.42452 | 19.29144 | 645 ft | 164 kts | 133° |
| 2026-05-04 18:13 | 47.41148 | 19.31927 | 1742 ft | 174 kts | 122° |
| 2026-05-04 18:14 | 47.40560 | 19.33610 | 2042 ft | 194 kts | 121° |
| 2026-05-04 18:14 | 47.39894 | 19.35486 | 2288 ft | 219 kts | 122° |
| 2026-05-04 18:14 | 47.39124 | 19.37558 | 2690 ft | 239 kts | 123° |
| 2026-05-04 18:15 | 47.38312 | 19.42297 | 4050 ft | 269 kts | 75° |
| 2026-05-04 18:15 | 47.40804 | 19.46671 | 5474 ft | 293 kts | 39° |
| 2026-05-04 18:15 | 47.42406 | 19.48491 | 6490 ft | 288 kts | 40° |
| 2026-05-04 18:16 | 47.43695 | 19.50740 | 7326 ft | 290 kts | 64° |
| 2026-05-04 18:16 | 47.44245 | 19.53607 | 8060 ft | 293 kts | 88° |
| 2026-05-04 18:16 | 47.44012 | 19.56581 | 8881 ft | 292 kts | 110° |
| 2026-05-04 18:17 | 47.42074 | 19.61817 | 10381 ft | 300 kts | 121° |
| 2026-05-04 18:17 | 47.41013 | 19.64611 | 10553 ft | 324 kts | 120° |
| 2026-05-04 18:17 | 47.38748 | 19.70700 | 11451 ft | 345 kts | 120° |
| 2026-05-04 18:18 | 47.37583 | 19.73821 | 12117 ft | 349 kts | 120° |
| 2026-05-04 18:18 | 47.36398 | 19.76973 | 12794 ft | 353 kts | 120° |
| 2026-05-04 18:18 | 47.35197 | 19.80143 | 13459 ft | 356 kts | 120° |
| 2026-05-04 18:18 | 47.33977 | 19.83347 | 14103 ft | 359 kts | 120° |
| 2026-05-04 18:19 | 47.31520 | 19.89786 | 15270 ft | 365 kts | 119° |
| 2026-05-04 18:19 | 47.30271 | 19.93060 | 15838 ft | 369 kts | 119° |
| 2026-05-04 18:19 | 47.29009 | 19.96367 | 16406 ft | 372 kts | 119° |
| 2026-05-04 18:20 | 47.27736 | 19.99706 | 16978 ft | 375 kts | 118° |
| 2026-05-04 18:20 | 47.26451 | 20.03066 | 17546 ft | 379 kts | 118° |
| 2026-05-04 18:20 | 47.25152 | 20.06456 | 18125 ft | 382 kts | 118° |
| 2026-05-04 18:20 | 47.23838 | 20.09881 | 18646 ft | 386 kts | 118° |
| 2026-05-04 18:21 | 47.22512 | 20.13330 | 18968 ft | 389 kts | 119° |
| 2026-05-04 18:21 | 47.21185 | 20.16821 | 19500 ft | 391 kts | 117° |
| 2026-05-04 18:21 | 47.19901 | 20.20359 | 20056 ft | 394 kts | 117° |
| 2026-05-04 18:21 | 47.18609 | 20.23924 | 20604 ft | 397 kts | 117° |
| 2026-05-04 18:22 | 47.17300 | 20.27518 | 21125 ft | 400 kts | 117° |
| 2026-05-04 18:22 | 47.15979 | 20.31137 | 21634 ft | 403 kts | 117° |
| 2026-05-04 18:22 | 47.14646 | 20.34780 | 22129 ft | 406 kts | 117° |
| 2026-05-04 18:22 | 47.13302 | 20.38444 | 22618 ft | 409 kts | 117° |
| 2026-05-04 18:23 | 47.12108 | 20.42194 | 23085 ft | 411 kts | 106° |
| 2026-05-04 18:23 | 47.11547 | 20.46304 | 23548 ft | 412 kts | 97° |
| 2026-05-04 18:23 | 47.11154 | 20.50490 | 23953 ft | 415 kts | 96° |
| 2026-05-04 18:23 | 47.10765 | 20.54704 | 24347 ft | 417 kts | 96° |
| 2026-05-04 18:24 | 47.10373 | 20.58934 | 24731 ft | 420 kts | 96° |
| 2026-05-04 18:24 | 47.09974 | 20.63190 | 25106 ft | 422 kts | 96° |
| 2026-05-04 18:24 | 47.09570 | 20.67470 | 25474 ft | 425 kts | 96° |
| 2026-05-04 18:24 | 47.09160 | 20.71775 | 25835 ft | 427 kts | 96° |
| 2026-05-04 18:25 | 47.08744 | 20.76107 | 26189 ft | 430 kts | 96° |
| 2026-05-04 18:25 | 47.08324 | 20.80459 | 26541 ft | 432 kts | 96° |
| 2026-05-04 18:25 | 47.07898 | 20.84834 | 26887 ft | 434 kts | 96° |
| 2026-05-04 18:25 | 47.07466 | 20.89230 | 27231 ft | 437 kts | 97° |
| 2026-05-04 18:26 | 47.06693 | 20.93560 | 27564 ft | 443 kts | 111° |
| 2026-05-04 18:26 | 47.05129 | 20.97471 | 27901 ft | 449 kts | 128° |
| 2026-05-04 18:26 | 47.02902 | 21.00705 | 28220 ft | 454 kts | 137° |
| 2026-05-04 18:26 | 47.00528 | 21.03776 | 28536 ft | 456 kts | 137° |
| 2026-05-04 18:27 | 46.98133 | 21.06845 | 28854 ft | 459 kts | 137° |
| 2026-05-04 18:27 | 46.95719 | 21.09924 | 29169 ft | 462 kts | 137° |
| 2026-05-04 18:27 | 46.93290 | 21.13019 | 29489 ft | 464 kts | 137° |
| 2026-05-04 18:27 | 46.90607 | 21.16450 | 29891 ft | 465 kts | 137° |
| 2026-05-04 18:28 | 46.88152 | 21.19601 | 30319 ft | 464 kts | 137° |
| 2026-05-04 18:28 | 46.85728 | 21.22715 | 30706 ft | 464 kts | 137° |
| 2026-05-04 18:28 | 46.83335 | 21.25785 | 31110 ft | 463 kts | 136° |
| 2026-05-04 18:28 | 46.80913 | 21.28880 | 31499 ft | 463 kts | 136° |
| 2026-05-04 18:29 | 46.78483 | 21.31975 | 31893 ft | 462 kts | 136° |
| 2026-05-04 18:29 | 46.76068 | 21.35048 | 32292 ft | 461 kts | 136° |
| 2026-05-04 18:29 | 46.73652 | 21.38115 | 32694 ft | 461 kts | 136° |
| 2026-05-04 18:29 | 46.71234 | 21.41184 | 33002 ft | 461 kts | 136° |
| 2026-05-04 18:30 | 46.64992 | 21.49651 | 33077 ft | 458 kts | 123° |
| 2026-05-04 18:31 | 46.61295 | 21.57168 | 33075 ft | 456 kts | 122° |
| 2026-05-04 18:31 | 46.57623 | 21.64706 | 33076 ft | 457 kts | 122° |
| 2026-05-04 18:32 | 46.53957 | 21.72249 | 33076 ft | 457 kts | 122° |
| 2026-05-04 18:32 | 46.50274 | 21.79785 | 33085 ft | 458 kts | 122° |
| 2026-05-04 18:33 | 46.46586 | 21.87316 | 33107 ft | 458 kts | 122° |
| 2026-05-04 18:33 | 46.42888 | 21.94841 | 33082 ft | 461 kts | 122° |
| 2026-05-04 18:34 | 46.39104 | 22.02513 | 33089 ft | 473 kts | 123° |
| 2026-05-04 18:34 | 46.35259 | 22.10284 | 33089 ft | 475 kts | 123° |
| 2026-05-04 18:35 | 46.31403 | 22.18070 | 33094 ft | 475 kts | 123° |
| 2026-05-04 18:35 | 46.27553 | 22.25821 | 33095 ft | 474 kts | 123° |
| 2026-05-04 18:36 | 46.23692 | 22.33564 | 33085 ft | 475 kts | 123° |
| 2026-05-04 18:36 | 46.19816 | 22.41319 | 33079 ft | 477 kts | 123° |
| 2026-05-04 18:37 | 46.15921 | 22.49093 | 33092 ft | 479 kts | 123° |
| 2026-05-04 18:37 | 46.12015 | 22.56872 | 33096 ft | 479 kts | 123° |
| 2026-05-04 18:38 | 46.08113 | 22.64604 | 33100 ft | 480 kts | 123° |
| 2026-05-04 18:38 | 46.04189 | 22.72375 | 33110 ft | 480 kts | 123° |
| 2026-05-04 18:39 | 46.00254 | 22.80139 | 33123 ft | 480 kts | 123° |
| 2026-05-04 18:39 | 45.96313 | 22.87895 | 33115 ft | 480 kts | 123° |
| 2026-05-04 18:40 | 45.92366 | 22.95642 | 33119 ft | 480 kts | 124° |
| 2026-05-04 18:40 | 45.88417 | 23.03375 | 33102 ft | 480 kts | 124° |
| 2026-05-04 18:41 | 45.84484 | 23.11048 | 33122 ft | 480 kts | 124° |
| 2026-05-04 18:41 | 45.80526 | 23.18762 | 33111 ft | 480 kts | 124° |
| 2026-05-04 18:42 | 45.76641 | 23.26525 | 33119 ft | 479 kts | 122° |
| 2026-05-04 18:42 | 45.73006 | 23.34508 | 33114 ft | 478 kts | 120° |
| 2026-05-04 18:43 | 45.69447 | 23.42547 | 33133 ft | 478 kts | 121° |
| 2026-05-04 18:43 | 45.65835 | 23.50517 | 33140 ft | 478 kts | 121° |
| 2026-05-04 18:44 | 45.62173 | 23.58434 | 33140 ft | 477 kts | 122° |
| 2026-05-04 18:44 | 45.58499 | 23.66335 | 33136 ft | 478 kts | 122° |
| 2026-05-04 18:45 | 45.54893 | 23.74104 | 33124 ft | 463 kts | 121° |
| 2026-05-04 18:45 | 45.51353 | 23.81735 | 33066 ft | 461 kts | 122° |
| 2026-05-04 18:45 | 45.49587 | 23.85535 | 32691 ft | 459 kts | 122° |
| 2026-05-04 18:46 | 45.47818 | 23.89334 | 32429 ft | 460 kts | 122° |
| 2026-05-04 18:46 | 45.46049 | 23.93129 | 32170 ft | 460 kts | 122° |
| 2026-05-04 18:46 | 45.44274 | 23.96935 | 31920 ft | 461 kts | 122° |
| 2026-05-04 18:46 | 45.42496 | 24.00739 | 31593 ft | 463 kts | 122° |
| 2026-05-04 18:47 | 45.40704 | 24.04568 | 31017 ft | 466 kts | 122° |
| 2026-05-04 18:47 | 45.38907 | 24.08396 | 30445 ft | 466 kts | 123° |
| 2026-05-04 18:47 | 45.37106 | 24.12230 | 29795 ft | 465 kts | 123° |
| 2026-05-04 18:47 | 45.35312 | 24.16044 | 29224 ft | 462 kts | 122° |
| 2026-05-04 18:48 | 45.33527 | 24.19833 | 28640 ft | 460 kts | 123° |
| 2026-05-04 18:48 | 45.31756 | 24.23584 | 28064 ft | 454 kts | 121° |
| 2026-05-04 18:48 | 45.30003 | 24.27289 | 27510 ft | 449 kts | 123° |
| 2026-05-04 18:48 | 45.28290 | 24.30912 | 26958 ft | 446 kts | 123° |
| 2026-05-04 18:49 | 45.26567 | 24.34553 | 26400 ft | 442 kts | 123° |
| 2026-05-04 18:49 | 45.24856 | 24.38161 | 25872 ft | 438 kts | 123° |
| 2026-05-04 18:49 | 45.23160 | 24.41734 | 25352 ft | 434 kts | 122° |
| 2026-05-04 18:49 | 45.21485 | 24.45268 | 24838 ft | 430 kts | 122° |
| 2026-05-04 18:50 | 45.19822 | 24.48771 | 24349 ft | 426 kts | 121° |
| 2026-05-04 18:50 | 45.18175 | 24.52231 | 23867 ft | 422 kts | 121° |
| 2026-05-04 18:50 | 45.16538 | 24.55658 | 23345 ft | 418 kts | 121° |
| 2026-05-04 18:50 | 45.14911 | 24.59058 | 22868 ft | 417 kts | 121° |
| 2026-05-04 18:51 | 45.13291 | 24.62449 | 22397 ft | 414 kts | 121° |
| 2026-05-04 18:51 | 45.11683 | 24.65809 | 21908 ft | 410 kts | 121° |
| 2026-05-04 18:51 | 45.10089 | 24.69138 | 21426 ft | 406 kts | 121° |
| 2026-05-04 18:51 | 45.06581 | 24.76446 | 20241 ft | 401 kts | 122° |
| 2026-05-04 18:52 | 45.05016 | 24.79696 | 19796 ft | 399 kts | 121° |
| 2026-05-04 18:52 | 45.03468 | 24.82914 | 19484 ft | 391 kts | 121° |
| 2026-05-04 18:52 | 45.01949 | 24.86068 | 19101 ft | 386 kts | 121° |
| 2026-05-04 18:52 | 45.00449 | 24.89178 | 18726 ft | 380 kts | 121° |
| 2026-05-04 18:53 | 44.98966 | 24.92250 | 18291 ft | 376 kts | 121° |
| 2026-05-04 18:53 | 44.97499 | 24.95289 | 17783 ft | 372 kts | 121° |
| 2026-05-04 18:53 | 44.96046 | 24.98289 | 17233 ft | 370 kts | 121° |
| 2026-05-04 18:53 | 44.94599 | 25.01271 | 16550 ft | 363 kts | 121° |
| 2026-05-04 18:54 | 44.93181 | 25.04189 | 15729 ft | 355 kts | 121° |
| 2026-05-04 18:54 | 44.91804 | 25.07020 | 15289 ft | 347 kts | 120° |
| 2026-05-04 18:54 | 44.90442 | 25.09819 | 14819 ft | 344 kts | 120° |
| 2026-05-04 18:54 | 44.89108 | 25.12560 | 14361 ft | 342 kts | 120° |
| 2026-05-04 18:55 | 44.87767 | 25.15318 | 13902 ft | 340 kts | 120° |
| 2026-05-04 18:55 | 44.85104 | 25.20779 | 12930 ft | 334 kts | 120° |
| 2026-05-04 18:55 | 44.83792 | 25.23460 | 12482 ft | 331 kts | 120° |
| 2026-05-04 18:56 | 44.82489 | 25.26122 | 12018 ft | 329 kts | 120° |
| 2026-05-04 18:56 | 44.81196 | 25.28766 | 11577 ft | 327 kts | 120° |
| 2026-05-04 18:56 | 44.79910 | 25.31397 | 11134 ft | 325 kts | 119° |
| 2026-05-04 18:56 | 44.78631 | 25.34016 | 10692 ft | 324 kts | 119° |
| 2026-05-04 18:57 | 44.77358 | 25.36620 | 10369 ft | 317 kts | 119° |
| 2026-05-04 18:57 | 44.76139 | 25.39091 | 10075 ft | 300 kts | 119° |
| 2026-05-04 18:57 | 44.74960 | 25.41481 | 9774 ft | 294 kts | 119° |
| 2026-05-04 18:57 | 44.73799 | 25.43844 | 9656 ft | 294 kts | 118° |
| 2026-05-04 18:58 | 44.72655 | 25.46170 | 9456 ft | 293 kts | 118° |
| 2026-05-04 18:58 | 44.71492 | 25.48536 | 8973 ft | 292 kts | 118° |
| 2026-05-04 18:58 | 44.70336 | 25.50880 | 8435 ft | 293 kts | 119° |
| 2026-05-04 18:58 | 44.69182 | 25.53216 | 8145 ft | 288 kts | 119° |
| 2026-05-04 18:59 | 44.68046 | 25.55512 | 7527 ft | 285 kts | 119° |
| 2026-05-04 18:59 | 44.66918 | 25.57797 | 6913 ft | 284 kts | 119° |
| 2026-05-04 18:59 | 44.65799 | 25.60061 | 6376 ft | 279 kts | 120° |
| 2026-05-04 18:59 | 44.64703 | 25.62277 | 5861 ft | 274 kts | 120° |
| 2026-05-04 19:00 | 44.63621 | 25.64462 | 5365 ft | 270 kts | 120° |
| 2026-05-04 19:00 | 44.62550 | 25.66623 | 4890 ft | 271 kts | 121° |
| 2026-05-04 19:00 | 44.61473 | 25.68798 | 4414 ft | 269 kts | 122° |
| 2026-05-04 19:00 | 44.60423 | 25.70906 | 4229 ft | 258 kts | 122° |
| 2026-05-04 19:01 | 44.59408 | 25.72941 | 4096 ft | 250 kts | 123° |
| 2026-05-04 19:01 | 44.58431 | 25.74902 | 3975 ft | 240 kts | 123° |
| 2026-05-04 19:01 | 44.57494 | 25.76786 | 3878 ft | 230 kts | 123° |
| 2026-05-04 19:01 | 44.56599 | 25.78587 | 3778 ft | 220 kts | 123° |
| 2026-05-04 19:02 | 44.55744 | 25.80307 | 3680 ft | 211 kts | 123° |
| 2026-05-04 19:02 | 44.54971 | 25.82000 | 3536 ft | 206 kts | 112° |
| 2026-05-04 19:02 | 44.54653 | 25.83902 | 3297 ft | 198 kts | 89° |
| 2026-05-04 19:02 | 44.54773 | 25.85824 | 3057 ft | 193 kts | 82° |
| 2026-05-04 19:03 | 44.54917 | 25.87645 | 2834 ft | 187 kts | 82° |
| 2026-05-04 19:03 | 44.55056 | 25.89423 | 2623 ft | 179 kts | 82° |
| 2026-05-04 19:03 | 44.55186 | 25.91093 | 2423 ft | 165 kts | 82° |
| 2026-05-04 19:03 | 44.55307 | 25.92638 | 2236 ft | 156 kts | 83° |
| 2026-05-04 19:04 | 44.55423 | 25.94139 | 2055 ft | 154 kts | 83° |
| 2026-05-04 19:04 | 44.55538 | 25.95616 | 1873 ft | 152 kts | 83° |
| 2026-05-04 19:04 | 44.55652 | 25.97085 | 1692 ft | 151 kts | 84° |
| 2026-05-04 19:04 | 44.55764 | 25.98542 | 1512 ft | 150 kts | 84° |
| 2026-05-04 19:05 | 44.55876 | 25.99990 | 1330 ft | 149 kts | 84° |
| 2026-05-04 19:05 | 44.55986 | 26.01425 | 1155 ft | 147 kts | 84° |
| 2026-05-04 19:05 | 44.56095 | 26.02835 | 973 ft | 144 kts | 84° |
| 2026-05-04 19:05 | 44.56208 | 26.04223 | 785 ft | 142 kts | 85° |
| 2026-05-04 19:06 | 44.56316 | 26.05593 | 631 ft | 141 kts | 85° |
| 2026-05-04 19:06 | 44.56410 | 26.06936 | 448 ft | 139 kts | 85° |
| 2026-05-04 19:06 | 44.56513 | 26.08271 | 340 ft | 130 kts | 85° |
| 2026-05-04 19:06 | 44.56594 | 26.09424 | 331 ft | 122 kts | 83° |
| 2026-05-04 19:07 | 44.56736 | 26.10719 | 748 ft | 143 kts | 82° |
| 2026-05-04 19:07 | 44.56893 | 26.12070 | 1537 ft | 131 kts | 75° |
| 2026-05-04 19:07 | 44.57254 | 26.13273 | 1845 ft | 151 kts | 63° |
| 2026-05-04 19:07 | 44.57532 | 26.14733 | 2485 ft | 150 kts | 81° |
| 2026-05-04 19:08 | 44.57658 | 26.16073 | 3209 ft | 139 kts | 77° |
| 2026-05-04 19:08 | 44.57873 | 26.17445 | 3801 ft | 144 kts | 73° |
| 2026-05-04 19:08 | 44.58191 | 26.18864 | 4496 ft | 136 kts | 68° |
| 2026-05-04 19:08 | 44.58603 | 26.20290 | 4590 ft | 171 kts | 64° |
| 2026-05-04 19:09 | 44.59120 | 26.21945 | 4694 ft | 196 kts | 63° |
| 2026-05-04 19:09 | 44.59782 | 26.23727 | 4702 ft | 210 kts | 48° |
| 2026-05-04 19:09 | 44.60987 | 26.24827 | 4697 ft | 209 kts | 12° |
| 2026-05-04 19:09 | 44.62444 | 26.24777 | 4932 ft | 214 kts | 350° |
| 2026-05-04 19:10 | 44.63876 | 26.24298 | 5032 ft | 214 kts | 345° |
| 2026-05-04 19:10 | 44.65163 | 26.23260 | 5054 ft | 219 kts | 314° |
| 2026-05-04 19:10 | 44.65849 | 26.21354 | 4887 ft | 224 kts | 281° |
| 2026-05-04 19:10 | 44.65873 | 26.19156 | 4533 ft | 227 kts | 268° |
| 2026-05-04 19:11 | 44.65750 | 26.16957 | 4237 ft | 225 kts | 266° |
| 2026-05-04 19:11 | 44.65618 | 26.14779 | 4071 ft | 223 kts | 266° |
| 2026-05-04 19:11 | 44.65486 | 26.12605 | 4054 ft | 224 kts | 266° |
| 2026-05-04 19:11 | 44.65353 | 26.10423 | 4056 ft | 224 kts | 266° |
| 2026-05-04 19:12 | 44.65218 | 26.08208 | 4064 ft | 240 kts | 266° |
| 2026-05-04 19:12 | 44.64918 | 26.03131 | 3922 ft | 267 kts | 266° |
| 2026-05-04 19:12 | 44.64767 | 26.00537 | 3588 ft | 266 kts | 266° |
| 2026-05-04 19:13 | 44.64621 | 25.97955 | 3284 ft | 264 kts | 266° |
| 2026-05-04 19:13 | 44.64480 | 25.95388 | 2970 ft | 263 kts | 266° |
| 2026-05-04 19:13 | 44.64342 | 25.92834 | 2663 ft | 261 kts | 266° |
| 2026-05-04 19:13 | 44.64208 | 25.90302 | 2544 ft | 260 kts | 266° |
| 2026-05-04 19:14 | 44.64073 | 25.87759 | 2548 ft | 262 kts | 266° |
| 2026-05-04 19:14 | 44.63938 | 25.85214 | 2554 ft | 262 kts | 266° |
| 2026-05-04 19:14 | 44.63735 | 25.82707 | 2551 ft | 262 kts | 255° |
| 2026-05-04 19:14 | 44.62860 | 25.80487 | 2545 ft | 264 kts | 226° |
| 2026-05-04 19:15 | 44.61317 | 25.79123 | 2554 ft | 265 kts | 197° |
| 2026-05-04 19:15 | 44.59493 | 25.78854 | 2557 ft | 266 kts | 179° |
| 2026-05-04 19:15 | 44.57644 | 25.78993 | 2554 ft | 267 kts | 173° |
| 2026-05-04 19:15 | 44.55910 | 25.79879 | 2554 ft | 268 kts | 147° |
| 2026-05-04 19:16 | 44.54748 | 25.81785 | 2545 ft | 249 kts | 109° |
| 2026-05-04 19:16 | 44.54588 | 25.84061 | 2560 ft | 230 kts | 83° |
| 2026-05-04 19:16 | 44.54783 | 25.86251 | 2553 ft | 224 kts | 81° |
| 2026-05-04 19:16 | 44.54972 | 25.88377 | 2547 ft | 213 kts | 82° |
| 2026-05-04 19:17 | 44.55080 | 25.89725 | 2532 ft | 206 kts | 82° |
| 2026-05-04 19:17 | 44.55232 | 25.91664 | 2339 ft | 195 kts | 82° |
| 2026-05-04 19:17 | 44.55374 | 25.93494 | 2116 ft | 182 kts | 83° |
| 2026-05-04 19:17 | 44.55504 | 25.95183 | 1926 ft | 165 kts | 83° |
| 2026-05-04 19:18 | 44.55623 | 25.96723 | 1737 ft | 154 kts | 83° |
| 2026-05-04 19:18 | 44.55738 | 25.98199 | 1552 ft | 150 kts | 83° |
| 2026-05-04 19:18 | 44.55849 | 25.99644 | 1372 ft | 148 kts | 84° |
| 2026-05-04 19:18 | 44.55954 | 26.01071 | 1180 ft | 146 kts | 84° |
| 2026-05-04 19:19 | 44.56062 | 26.02478 | 1015 ft | 143 kts | 84° |
| 2026-05-04 19:19 | 44.56169 | 26.03858 | 827 ft | 141 kts | 84° |
| 2026-05-04 19:19 | 44.56279 | 26.05215 | 646 ft | 139 kts | 84° |
| 2026-05-04 19:19 | 44.56385 | 26.06544 | 503 ft | 138 kts | 86° |
| 2026-05-04 19:20 | 44.56486 | 26.07881 | 346 ft | 137 kts | 85° |
| 2026-05-04 19:20 | 44.56571 | 26.09064 | 320 ft | 101 kts | 84° |
| 2026-05-04 19:20 | 44.56626 | 26.09804 | 320 ft | 51 kts | 83° |
| 2026-05-04 19:20 | 44.56652 | 26.10129 | 322 ft | 28 kts | 84° |
| 2026-05-04 19:21 | 44.56672 | 26.10410 | 322 ft | 30 kts | 84° |
| 2026-05-04 19:21 | 44.56694 | 26.10686 | 321 ft | 22 kts | 81° |
| 2026-05-04 19:21 | 44.56771 | 26.10766 | 320 ft | 13 kts | 358° |
| 2026-05-04 19:21 | 44.56874 | 26.10751 | 321 ft | 16 kts | 354° |
| 2026-05-04 19:22 | 44.56978 | 26.10722 | 321 ft | 16 kts | 336° |
| 2026-05-04 19:22 | 44.57049 | 26.10599 | 321 ft | 18 kts | 294° |
| 2026-05-04 19:22 | 44.57064 | 26.10439 | 321 ft | 17 kts | 266° |
| 2026-05-04 19:22 | 44.57051 | 26.10262 | 321 ft | 20 kts | 263° |
| 2026-05-04 19:23 | 44.57035 | 26.10059 | 320 ft | 22 kts | 264° |
| 2026-05-04 19:23 | 44.57017 | 26.09831 | 321 ft | 25 kts | 264° |
| 2026-05-04 19:23 | 44.56998 | 26.09579 | 321 ft | 27 kts | 264° |
| 2026-05-04 19:23 | 44.56980 | 26.09361 | 321 ft | 20 kts | 263° |
| 2026-05-04 19:24 | 44.56967 | 26.09200 | 321 ft | 6 kts | 259° |
| 2026-05-04 19:24 | 44.56938 | 26.09198 | 321 ft | 5 kts | 176° |
| 2026-05-04 19:24 | 44.56917 | 26.09201 | 319 ft | 2 kts | 174° |
| 2026-05-04 19:24 | 44.56909 | 26.09202 | 320 ft | 0 kts | 173° |